createdAt,value
2019-02-25T00:02:19.671Z,19.75
2019-02-25T00:04:50.493Z,21.20
2019-02-25T00:07:21.470Z,21.50
2019-02-25T00:09:52.518Z,20.43
2019-02-25T00:12:23.518Z,20.20
2019-02-25T00:14:56.170Z,17.85
2019-02-25T00:17:27.470Z,19.42
2019-02-25T00:19:58.408Z,19.60
2019-02-25T00:22:29.128Z,21.57
2019-02-25T00:25:00.227Z,18.95
2019-02-25T00:27:31.190Z,18.20
2019-02-25T00:30:02.510Z,19.57
2019-02-25T00:32:33.540Z,17.90
2019-02-25T00:35:04.500Z,18.12
2019-02-25T00:37:35.470Z,17.98
2019-02-25T00:40:06.398Z,18.40
2019-02-25T00:42:37.198Z,18.50
2019-02-25T00:45:08.396Z,17.25
2019-02-25T00:47:39.331Z,16.55
2019-02-25T00:50:11.938Z,20.05
2019-02-25T00:52:42.966Z,17.60
2019-02-25T00:55:14.950Z,18.60
2019-02-25T00:57:45.801Z,16.35
2019-02-25T01:00:17.009Z,16.35
2019-02-25T01:02:47.959Z,16.77
2019-02-25T01:05:18.913Z,16.37
2019-02-25T01:07:49.770Z,16.45
2019-02-25T01:10:20.960Z,18.25
2019-02-25T01:12:51.920Z,16.87
2019-02-25T01:15:22.868Z,15.45
2019-02-25T01:17:53.798Z,17.37
2019-02-25T01:20:24.650Z,15.80
2019-02-25T01:22:55.513Z,17.27
2019-02-25T01:25:26.370Z,15.80
2019-02-25T01:27:57.398Z,17.80
2019-02-25T01:30:29.202Z,17.70
2019-02-25T01:33:00.399Z,16.35
2019-02-25T01:35:31.194Z,16.62
2019-02-25T01:38:02.020Z,18.57
2019-02-25T01:40:32.797Z,17.12
2019-02-25T01:43:03.830Z,17.37
2019-02-25T01:45:34.650Z,18.48
2019-02-25T01:48:06.683Z,16.32
2019-02-25T01:50:37.520Z,16.40
2019-02-25T01:53:08.548Z,19.35
2019-02-25T01:55:39.510Z,17.10
2019-02-25T01:58:10.568Z,19.12
2019-02-25T02:00:41.542Z,16.40
2019-02-25T02:03:12.521Z,15.30
2019-02-25T02:05:46.428Z,14.68
2019-02-25T02:08:17.461Z,14.83
2019-02-25T02:10:48.298Z,16.42
2019-02-25T02:13:19.148Z,15.75
2019-02-25T02:15:50.038Z,15.30
2019-02-25T02:18:20.779Z,16.07
2019-02-25T02:20:51.788Z,14.58
2019-02-25T02:23:22.870Z,14.30
2019-02-25T02:25:53.909Z,15.45
2019-02-25T02:28:24.978Z,13.70
2019-02-25T02:30:56.220Z,15.75
2019-02-25T02:33:27.292Z,15.07
2019-02-25T02:35:58.290Z,15.72
2019-02-25T02:38:29.640Z,16.62
2019-02-25T02:41:00.858Z,13.80
2019-02-25T02:43:31.952Z,15.93
2019-02-25T02:46:30.423Z,14.85
2019-02-25T02:49:04.328Z,15.53
2019-02-25T02:51:35.480Z,15.83
2019-02-25T02:54:06.508Z,15.98
2019-02-25T02:56:37.770Z,15.65
2019-02-25T02:59:08.933Z,11.97
2019-02-25T03:01:40.030Z,15.93
2019-02-25T03:04:11.172Z,15.78
2019-02-25T03:06:42.548Z,15.45
2019-02-25T03:09:13.408Z,13.88
2019-02-25T03:11:44.511Z,16.25
2019-02-25T03:14:15.471Z,15.83
2019-02-25T03:16:46.472Z,15.65
2019-02-25T03:19:17.712Z,14.28
2019-02-25T03:21:48.834Z,14.40
2019-02-25T03:24:19.910Z,13.53
2019-02-25T03:26:50.874Z,13.38
2019-02-25T03:29:23.176Z,14.25
2019-02-25T03:31:54.331Z,13.50
2019-02-25T03:34:25.563Z,13.15
2019-02-25T03:36:57.000Z,14.13
2019-02-25T03:39:28.131Z,15.00
2019-02-25T03:41:59.208Z,12.47
2019-02-25T03:44:30.188Z,13.30
2019-02-25T03:47:01.190Z,14.68
2019-02-25T03:49:32.201Z,14.05
2019-02-25T03:52:03.450Z,13.22
2019-02-25T03:54:34.410Z,13.23
2019-02-25T03:57:05.323Z,14.00
2019-02-25T03:59:36.569Z,15.15
2019-02-25T04:02:07.558Z,15.17
2019-02-25T04:04:38.755Z,17.25
2019-02-25T04:07:09.990Z,16.30
2019-02-25T04:09:41.097Z,16.02
2019-02-25T04:12:12.120Z,16.20
2019-02-25T04:14:42.919Z,15.65
2019-02-25T04:17:14.218Z,16.55
2019-02-25T04:19:45.210Z,14.43
2019-02-25T04:22:16.260Z,14.58
2019-02-25T04:24:47.189Z,13.78
2019-02-25T04:27:18.253Z,14.90
2019-02-25T04:29:49.298Z,14.60
2019-02-25T04:32:21.784Z,14.43
2019-02-25T04:34:53.022Z,13.48
2019-02-25T04:37:23.910Z,14.63
2019-02-25T04:39:54.933Z,13.72
2019-02-25T04:42:26.021Z,14.93
2019-02-25T04:44:57.250Z,15.38
2019-02-25T04:47:28.308Z,15.15
2019-02-25T04:49:59.479Z,15.28
2019-02-25T04:52:30.510Z,15.30
2019-02-25T04:55:01.555Z,16.17
2019-02-25T04:57:32.652Z,14.87
2019-02-25T05:00:03.784Z,16.12
2019-02-25T05:02:34.699Z,15.72
2019-02-25T05:05:05.730Z,14.35
2019-02-25T05:07:36.809Z,13.93
2019-02-25T05:10:08.821Z,15.50
2019-02-25T05:12:42.849Z,14.95
2019-02-25T05:15:15.883Z,13.93
2019-02-25T05:17:53.504Z,15.23
2019-02-25T05:20:24.561Z,15.58
2019-02-25T05:22:55.638Z,14.60
2019-02-25T05:25:26.609Z,13.70
2019-02-25T05:27:57.678Z,14.23
2019-02-25T05:30:28.791Z,14.47
2019-02-25T05:32:59.881Z,15.38
2019-02-25T05:35:30.996Z,16.02
2019-02-25T05:38:01.908Z,18.48
2019-02-25T05:40:33.309Z,18.70
2019-02-25T05:43:04.365Z,20.27
2019-02-25T05:45:35.674Z,19.85
2019-02-25T05:48:06.619Z,20.37
2019-02-25T05:50:37.743Z,20.92
2019-02-25T05:53:08.873Z,18.82
2019-02-25T05:55:40.078Z,15.47
2019-02-25T05:58:11.000Z,15.00
2019-02-25T06:00:42.039Z,15.35
2019-02-25T06:03:13.088Z,14.73
2019-02-25T06:05:43.980Z,15.60
2019-02-25T06:08:14.971Z,13.40
2019-02-25T06:10:45.955Z,14.98
2019-02-25T06:13:16.820Z,14.23
2019-02-25T06:15:47.791Z,13.53
2019-02-25T06:18:18.563Z,14.13
2019-02-25T06:20:50.560Z,15.03
2019-02-25T06:23:21.608Z,14.95
2019-02-25T06:25:52.679Z,15.03
2019-02-25T06:28:23.561Z,13.90
2019-02-25T06:30:55.668Z,13.60
2019-02-25T06:33:26.545Z,14.13
2019-02-25T06:35:57.410Z,14.33
2019-02-25T06:38:28.419Z,14.55
2019-02-25T06:40:59.648Z,15.35
2019-02-25T06:43:30.610Z,14.95
2019-02-25T06:46:01.530Z,14.28
2019-02-25T06:48:32.402Z,13.32
2019-02-25T06:51:03.340Z,16.02
2019-02-25T06:53:34.369Z,13.50
2019-02-25T06:56:05.237Z,15.32
2019-02-25T06:58:36.040Z,14.80
2019-02-25T07:01:07.110Z,14.38
2019-02-25T07:03:37.978Z,14.40
2019-02-25T07:06:19.920Z,14.20
2019-02-25T07:09:10.200Z,14.35
2019-02-25T07:11:46.571Z,13.68
2019-02-25T07:14:42.180Z,13.83
2019-02-25T07:17:29.331Z,14.10
2019-02-25T07:20:21.678Z,13.85
2019-02-25T07:23:20.273Z,15.10
2019-02-25T07:26:10.010Z,15.28
2019-02-25T07:29:17.813Z,14.35
2019-02-25T07:32:07.468Z,15.68
2019-02-25T07:35:06.341Z,15.45
2019-02-25T07:37:56.200Z,13.88
2019-02-25T08:18:51.118Z,30.80
2019-02-25T08:21:38.950Z,23.80
2019-02-25T08:24:19.909Z,17.50
2019-02-25T08:27:24.710Z,19.42
2019-02-25T08:30:26.340Z,15.68
2019-02-25T08:33:17.251Z,15.25
2019-02-25T08:37:13.270Z,16.97
2019-02-25T08:39:53.068Z,14.23
2019-02-25T08:42:43.172Z,15.72
2019-02-25T08:45:32.240Z,16.70
2019-02-25T08:48:08.038Z,15.70
2019-02-25T08:50:39.023Z,23.57
2019-02-25T08:53:10.078Z,15.03
2019-02-25T08:55:40.939Z,16.00
2019-02-25T08:58:15.149Z,16.23
2019-02-25T09:00:47.147Z,16.90
2019-02-25T09:03:18.221Z,15.88
2019-02-25T09:05:49.210Z,15.08
2019-02-25T09:08:20.408Z,16.55
2019-02-25T09:10:51.308Z,15.98
2019-02-25T09:13:23.805Z,15.80
2019-02-25T09:15:55.109Z,17.67
2019-02-25T09:18:26.130Z,17.35
2019-02-25T09:20:57.091Z,16.65
2019-02-25T09:23:27.850Z,18.52
2019-02-25T09:25:59.037Z,17.17
2019-02-25T09:28:30.181Z,14.60
2019-02-25T09:31:01.094Z,17.17
2019-02-25T09:33:31.859Z,17.00
2019-02-25T09:36:02.998Z,16.20
2019-02-25T09:38:33.902Z,17.98
2019-02-25T09:41:04.828Z,15.43
2019-02-25T09:43:35.728Z,18.57
2019-02-25T09:46:06.726Z,16.48
2019-02-25T09:48:37.655Z,16.95
2019-02-25T09:51:08.539Z,17.65
2019-02-25T09:53:39.498Z,17.20
2019-02-25T09:56:10.468Z,17.92
2019-02-25T09:58:41.291Z,17.17
2019-02-25T10:01:12.278Z,18.70
2019-02-25T10:03:43.438Z,19.17
2019-02-25T10:06:14.370Z,19.75
2019-02-25T10:08:46.560Z,18.42
2019-02-25T10:13:47.410Z,18.55
2019-02-25T10:16:18.224Z,17.48
2019-02-25T10:18:49.268Z,17.05
2019-02-25T10:21:20.138Z,18.35
2019-02-25T10:23:56.560Z,17.80
2019-02-25T10:26:24.219Z,17.70
2019-02-25T10:28:55.292Z,17.85
2019-02-25T10:31:26.188Z,17.02
2019-02-25T10:33:57.259Z,16.93
2019-02-25T10:36:28.001Z,17.85
2019-02-25T10:38:59.049Z,17.05
2019-02-25T10:41:29.961Z,17.98
2019-02-25T10:44:02.358Z,17.82
2019-02-25T10:46:33.640Z,18.77
2019-02-25T10:49:11.027Z,18.42
2019-02-25T10:51:38.875Z,17.50
2019-02-25T10:54:09.780Z,18.20
2019-02-25T10:56:47.274Z,17.15
2019-02-25T10:59:18.078Z,17.27
2019-02-25T11:01:49.040Z,16.97
2019-02-25T11:04:21.766Z,16.87
2019-02-25T11:06:52.803Z,19.30
2019-02-25T11:09:35.626Z,17.65
2019-02-25T11:12:07.160Z,17.15
2019-02-25T11:14:40.504Z,17.73
2019-02-25T11:17:10.848Z,16.80
2019-02-25T11:19:41.860Z,17.25
2019-02-25T11:22:14.639Z,16.42
2019-02-25T11:24:47.385Z,17.20
2019-02-25T11:27:19.110Z,16.80
2019-02-25T11:29:51.801Z,16.80
2019-02-25T11:32:23.682Z,16.67
2019-02-25T11:34:55.991Z,15.43
2019-02-25T11:37:27.065Z,17.07
2019-02-25T11:39:59.811Z,16.45
2019-02-25T11:42:30.958Z,17.20
2019-02-25T11:45:04.482Z,16.02
2019-02-25T11:47:35.690Z,16.37
2019-02-25T11:50:08.800Z,17.12
2019-02-25T11:52:39.794Z,17.10
2019-02-25T11:55:11.244Z,17.87
2019-02-25T11:57:42.149Z,18.83
2019-02-25T12:00:16.521Z,18.70
2019-02-25T12:02:47.570Z,16.90
2019-02-25T12:05:18.881Z,16.12
2019-02-25T12:07:49.970Z,16.60
2019-02-25T12:10:20.964Z,17.30
2019-02-25T12:12:51.940Z,16.95
2019-02-25T12:15:22.970Z,16.67
2019-02-25T12:17:53.928Z,16.73
2019-02-25T12:20:24.887Z,16.20
2019-02-25T12:22:55.931Z,16.82
2019-02-25T12:25:26.881Z,16.02
2019-02-25T12:28:00.788Z,16.48
2019-02-25T12:30:31.719Z,15.48
2019-02-25T12:33:02.575Z,16.52
2019-02-25T12:35:33.821Z,16.52
2019-02-25T12:38:04.694Z,15.18
2019-02-25T12:40:35.771Z,16.32
2019-02-25T12:43:07.081Z,17.27
2019-02-25T12:45:38.193Z,16.50
2019-02-25T12:48:09.309Z,15.95
2019-02-25T12:50:40.298Z,15.35
2019-02-25T12:53:11.260Z,15.85
2019-02-25T12:55:42.478Z,15.68
2019-02-25T12:58:13.563Z,14.85
2019-02-25T13:00:44.619Z,16.37
2019-02-25T13:03:15.722Z,16.30
2019-02-25T13:05:46.980Z,15.30
2019-02-25T13:08:18.234Z,15.50
2019-02-25T13:10:49.291Z,14.10
2019-02-25T13:13:20.380Z,16.42
2019-02-25T13:15:52.021Z,16.80
2019-02-25T13:18:23.080Z,15.10
2019-02-25T13:20:54.080Z,15.03
2019-02-25T13:23:25.311Z,15.05
2019-02-25T13:25:56.362Z,16.48
2019-02-25T13:28:28.663Z,15.48
2019-02-25T13:31:00.972Z,15.70
2019-02-25T13:33:33.110Z,14.80
2019-02-25T13:36:04.439Z,13.38
2019-02-25T13:38:35.581Z,15.55
2019-02-25T13:41:07.031Z,15.10
2019-02-25T13:43:38.106Z,18.50
2019-02-25T13:46:09.109Z,16.50
2019-02-25T13:48:42.818Z,15.93
2019-02-25T13:51:13.930Z,14.38
2019-02-25T13:59:41.969Z,13.98
2019-02-25T14:02:13.031Z,13.25
2019-02-25T14:04:44.378Z,13.78
2019-02-25T14:07:15.641Z,12.50
2019-02-25T14:09:46.579Z,11.88
2019-02-25T14:12:17.575Z,12.85
2019-02-25T14:14:48.649Z,12.20
2019-02-25T14:17:19.681Z,12.07
2019-02-25T14:19:52.007Z,12.03
2019-02-25T14:22:23.411Z,13.83
2019-02-25T14:24:54.601Z,13.80
2019-02-25T14:27:27.164Z,16.00
2019-02-25T14:29:58.887Z,11.43
2019-02-25T14:32:31.012Z,13.98
2019-02-25T14:35:02.117Z,12.37
2019-02-25T14:37:33.350Z,13.00
2019-02-25T14:40:06.052Z,14.30
2019-02-25T14:42:39.035Z,13.60
2019-02-25T14:45:11.149Z,13.28
2019-02-25T14:47:44.238Z,13.75
2019-02-25T14:50:16.831Z,15.58
2019-02-25T14:52:47.971Z,14.58
2019-02-25T14:55:19.164Z,14.40
2019-02-25T14:57:50.177Z,14.65
2019-02-25T15:00:26.173Z,13.78
2019-02-25T15:02:56.529Z,16.00
2019-02-25T15:05:27.851Z,14.40
2019-02-25T15:07:59.199Z,14.93
2019-02-25T15:10:31.703Z,15.18
2019-02-25T15:13:04.062Z,13.30
2019-02-25T15:15:37.043Z,14.98
2019-02-25T15:18:08.472Z,15.43
2019-02-25T15:20:39.532Z,15.40
2019-02-25T15:23:12.532Z,16.12
2019-02-25T15:25:44.891Z,13.88
2019-02-25T15:28:17.977Z,13.93
2019-02-25T15:30:48.851Z,13.35
2019-02-25T15:33:19.972Z,15.35
2019-02-25T15:35:51.277Z,15.55
2019-02-25T15:38:22.289Z,14.93
2019-02-25T15:40:55.913Z,15.13
2019-02-25T15:43:29.319Z,14.58
2019-02-25T15:46:01.561Z,13.35
2019-02-25T15:48:34.589Z,14.85
2019-02-25T15:51:05.610Z,13.18
2019-02-25T15:53:36.751Z,16.57
2019-02-25T15:56:08.622Z,13.93
2019-02-25T15:58:40.551Z,13.88
2019-02-25T16:01:13.169Z,14.65
2019-02-25T16:03:44.178Z,14.63
2019-02-25T16:06:15.172Z,14.98
2019-02-25T16:08:49.944Z,14.10
2019-02-25T16:11:20.815Z,13.48
2019-02-25T16:13:53.494Z,14.00
2019-02-25T16:16:25.089Z,16.15
2019-02-25T16:21:27.119Z,14.53
2019-02-25T16:23:59.591Z,14.07
2019-02-25T16:26:32.058Z,14.53
2019-02-25T16:29:06.478Z,13.30
2019-02-25T16:31:37.612Z,15.23
2019-02-25T16:34:10.035Z,12.88
2019-02-25T16:36:41.448Z,13.53
2019-02-25T16:39:12.350Z,14.40
2019-02-25T16:41:45.665Z,15.32
2019-02-25T16:44:17.495Z,14.35
2019-02-25T16:46:50.578Z,13.08
2019-02-25T16:49:20.985Z,13.50
2019-02-25T16:51:53.176Z,12.25
2019-02-25T16:54:25.310Z,14.90
2019-02-25T16:56:56.348Z,12.85
2019-02-25T16:59:27.845Z,15.58
2019-02-25T17:02:00.018Z,15.32
2019-02-25T17:04:31.898Z,15.10
2019-02-25T17:07:03.425Z,15.38
2019-02-25T17:09:36.379Z,14.95
2019-02-25T17:12:08.896Z,13.93
2019-02-25T17:14:41.361Z,13.53
2019-02-25T17:17:12.386Z,15.08
2019-02-25T17:19:43.560Z,15.68
2019-02-25T17:22:18.919Z,14.13
2019-02-25T17:24:54.262Z,15.78
2019-02-25T17:27:26.182Z,16.17
2019-02-25T17:29:57.787Z,15.10
2019-02-25T17:32:30.141Z,12.98
2019-02-25T17:35:02.952Z,15.58
2019-02-25T17:37:35.558Z,18.50
2019-02-25T17:40:08.626Z,20.35
2019-02-25T17:42:39.871Z,17.30
2019-02-25T17:45:13.551Z,16.67
2019-02-25T17:47:44.615Z,18.00
2019-02-25T17:50:18.329Z,18.52
2019-02-25T17:52:50.370Z,18.32
2019-02-25T17:55:22.472Z,17.37
2019-02-25T17:57:54.335Z,17.62
2019-02-25T18:00:36.763Z,18.45
2019-02-25T18:03:07.780Z,20.65
2019-02-25T18:05:40.560Z,19.57
2019-02-25T18:08:15.123Z,18.45
2019-02-25T18:10:45.570Z,20.20
2019-02-25T18:13:17.900Z,19.85
2019-02-25T18:15:53.725Z,20.60
2019-02-25T18:18:28.390Z,20.72
2019-02-25T18:20:59.338Z,21.23
2019-02-25T18:23:30.351Z,21.45
2019-02-25T18:26:02.408Z,22.00
2019-02-25T18:28:34.862Z,22.37
2019-02-25T18:31:09.650Z,22.82
2019-02-25T18:33:41.665Z,22.55
2019-02-25T18:36:12.846Z,21.73
2019-02-25T18:38:44.641Z,23.90
2019-02-25T18:41:16.483Z,22.30
2019-02-25T18:43:49.219Z,21.30
2019-02-25T18:46:21.243Z,22.82
2019-02-25T18:48:53.009Z,23.62
2019-02-25T18:51:24.644Z,23.42
2019-02-25T18:53:57.637Z,23.00
2019-02-25T18:56:29.371Z,21.80
2019-02-25T18:59:08.157Z,22.17
2019-02-25T19:01:33.381Z,19.60
2019-02-25T19:04:04.313Z,21.55
2019-02-25T19:06:37.224Z,20.75
2019-02-25T19:09:12.252Z,20.23
2019-02-25T19:11:42.845Z,20.85
2019-02-25T19:14:15.370Z,20.90
2019-02-25T19:16:46.892Z,20.02
2019-02-25T19:19:19.254Z,19.85
2019-02-25T19:21:52.031Z,21.15
2019-02-25T19:24:23.068Z,19.73
2019-02-25T19:26:54.189Z,19.98
2019-02-25T19:29:26.050Z,21.20
2019-02-25T19:32:00.691Z,18.25
2019-02-25T19:34:30.644Z,20.65
2019-02-25T19:37:02.853Z,20.02
2019-02-25T19:39:35.415Z,18.57
2019-02-25T19:42:07.021Z,18.27
2019-02-25T19:44:38.573Z,16.62
2019-02-25T19:47:10.274Z,19.15
2019-02-25T19:49:43.629Z,18.55
2019-02-25T19:52:16.792Z,19.52
2019-02-25T19:54:48.882Z,18.48
2019-02-25T19:57:21.647Z,19.23
2019-02-25T19:59:55.456Z,18.70
2019-02-25T20:02:27.210Z,19.98
2019-02-25T20:04:58.879Z,18.05
2019-02-25T20:07:31.458Z,17.32
2019-02-25T20:10:03.014Z,19.92
2019-02-25T20:12:36.340Z,17.20
2019-02-25T20:15:11.127Z,18.82
2019-02-25T20:17:44.103Z,19.25
2019-02-25T20:20:15.140Z,18.42
2019-02-25T20:22:48.228Z,16.85
2019-02-25T20:25:21.781Z,19.05
2019-02-25T20:30:35.502Z,18.23
2019-02-25T20:33:08.619Z,19.05
2019-02-25T20:35:44.945Z,21.48
2019-02-25T20:38:16.228Z,17.70
2019-02-25T20:40:50.808Z,18.10
2019-02-25T20:43:21.828Z,17.85
2019-02-25T20:45:54.659Z,16.70
2019-02-25T20:48:27.497Z,18.50
2019-02-25T20:51:00.288Z,20.37
2019-02-25T20:53:32.250Z,20.08
2019-02-25T20:56:04.322Z,20.30
2019-02-25T20:58:36.136Z,19.80
2019-02-25T21:01:09.805Z,19.05
2019-02-25T21:03:43.825Z,21.05
2019-02-25T21:06:14.510Z,21.00
2019-02-25T21:08:46.652Z,22.60
2019-02-25T21:11:17.791Z,23.90
2019-02-25T21:13:48.858Z,19.90
2019-02-25T21:16:20.009Z,22.60
2019-02-25T21:18:52.944Z,19.20
2019-02-25T21:21:23.420Z,23.32
2019-02-25T21:23:54.611Z,24.80
2019-02-25T21:26:29.267Z,21.07
2019-02-25T21:29:00.178Z,18.98
2019-02-25T21:31:31.100Z,19.48
2019-02-25T21:34:02.147Z,19.55
2019-02-25T21:36:33.863Z,19.35
2019-02-25T21:39:08.307Z,21.10
2019-02-25T21:41:41.808Z,21.50
2019-02-25T21:44:16.670Z,20.95
2019-02-25T21:46:49.776Z,17.52
2019-02-25T21:49:20.261Z,20.57
2019-02-25T21:51:52.518Z,19.45
2019-02-25T21:54:24.056Z,20.95
2019-02-25T21:56:55.070Z,20.62
2019-02-25T21:59:26.000Z,20.57
2019-02-25T22:01:57.792Z,20.72
2019-02-25T22:04:29.898Z,20.70
2019-02-25T22:07:02.556Z,21.90
2019-02-25T22:09:36.922Z,20.82
2019-02-25T22:12:07.630Z,20.55
2019-02-25T22:14:41.224Z,22.60
2019-02-25T22:17:12.959Z,20.92
2019-02-25T22:22:11.908Z,20.37
2019-02-25T22:24:42.863Z,22.73
2019-02-25T22:27:14.492Z,23.35
2019-02-25T22:29:46.579Z,22.52
2019-02-25T22:32:17.648Z,24.35
2019-02-25T22:34:48.710Z,22.73
2019-02-25T22:37:22.040Z,21.90
2019-02-25T22:39:54.532Z,24.63
2019-02-25T22:42:26.939Z,22.75
2019-02-25T22:44:57.760Z,25.20
2019-02-25T22:47:28.699Z,24.40
2019-02-25T22:49:59.773Z,24.25
2019-02-25T22:52:31.531Z,23.80
2019-02-25T22:55:05.971Z,25.85
2019-02-25T22:57:36.108Z,26.80
2019-02-25T23:00:22.696Z,23.90
2019-02-25T23:02:56.835Z,26.93
2019-02-25T23:05:27.740Z,23.55
2019-02-25T23:07:58.623Z,24.15
2019-02-25T23:10:29.058Z,24.65
2019-02-25T23:12:59.817Z,23.35
2019-02-25T23:15:30.611Z,23.45
2019-02-25T23:18:05.378Z,21.33
2019-02-25T23:20:34.106Z,25.75
2019-02-25T23:23:06.670Z,26.70
2019-02-25T23:25:37.553Z,25.12
2019-02-25T23:28:08.588Z,23.67
2019-02-25T23:30:39.808Z,24.72
2019-02-25T23:33:11.997Z,23.90
2019-02-25T23:35:46.587Z,22.93
2019-02-25T23:38:16.428Z,23.20
2019-02-25T23:40:47.362Z,22.75
2019-02-25T23:43:18.944Z,20.55
2019-02-25T23:45:49.927Z,18.95
2019-02-25T23:48:21.024Z,21.62
2019-02-25T23:50:54.922Z,20.23
2019-02-25T23:53:28.325Z,21.33
2019-02-25T23:55:58.922Z,20.20
2019-02-25T23:58:30.152Z,19.82
